KCDN/CDN METAR and TAF weather

Enter ICAO airport designator
Station Type Date Time Source
KCDN METAR 2018/12/13 15:15 UTC NOAA

KCDN 131515Z AUTO 00000KT 10SM CLR 06/01 A3033 RMK AO2


Station Type Date Time Source
KCDN Decoded METAR 2018/12/13 15:15 UTC NOAA

Station name not available
Dec 13, 2018 - 10:15 AM EST / 2018.12.13 1515 UTC
Wind: Calm:0
Visibility: 10 mile(s):0
Sky conditions: clear
Temperature: 42 F (6 C)
Dew Point: 33 F (1 C)
Relative Humidity: 70%
Pressure (altimeter): 30.33 in. Hg (1027 hPa)
ob: KCDN 131515Z AUTO 00000KT 10SM CLR 06/01 A3033 RMK AO2
cycle: 15

Station Type Date Time Source
KCDN TAF UTC NOAA

Error!


Example: see airport list